createdAt,value
2023-05-04T00:01:02.389Z,151.50
2023-05-04T00:03:28.965Z,149.93
2023-05-04T00:05:55.614Z,153.23
2023-05-04T00:08:22.085Z,156.03
2023-05-04T00:10:48.612Z,157.33
2023-05-04T00:13:15.197Z,159.57
2023-05-04T00:15:41.946Z,158.93
2023-05-04T00:18:08.664Z,156.93
2023-05-04T00:20:35.147Z,160.03
2023-05-04T00:23:01.636Z,159.23
2023-05-04T00:25:28.128Z,150.13
2023-05-04T00:27:54.616Z,156.03
2023-05-04T00:30:21.158Z,149.93
2023-05-04T00:32:47.689Z,156.33
2023-05-04T00:35:14.227Z,155.93
2023-05-04T00:37:40.927Z,156.63
2023-05-04T00:40:08.960Z,148.37
2023-05-04T00:42:35.467Z,155.70
2023-05-04T00:45:01.966Z,152.33
2023-05-04T00:47:29.945Z,153.17
2023-05-04T00:49:56.577Z,152.73
2023-05-04T00:52:24.266Z,149.37
2023-05-04T00:54:52.044Z,148.93
2023-05-04T00:57:18.519Z,148.97
2023-05-04T00:59:45.018Z,151.23
2023-05-04T01:02:11.678Z,150.13
2023-05-04T01:04:38.297Z,157.17
2023-05-04T01:07:25.025Z,153.83
2023-05-04T01:10:02.104Z,145.60
2023-05-04T01:12:41.569Z,142.13
2023-05-04T01:15:09.827Z,151.97
2023-05-04T01:17:36.563Z,149.87
2023-05-04T01:20:04.161Z,152.20
2023-05-04T01:22:30.902Z,147.83
2023-05-04T01:24:57.376Z,148.83
2023-05-04T01:27:23.824Z,143.07
2023-05-04T01:29:53.233Z,149.20
2023-05-04T01:32:21.076Z,145.67
2023-05-04T01:34:48.004Z,145.43
2023-05-04T01:37:14.795Z,151.50
2023-05-04T01:39:41.274Z,153.07
2023-05-04T01:42:07.773Z,146.17
2023-05-04T01:44:34.379Z,150.27
2023-05-04T01:47:00.925Z,146.53
2023-05-04T01:49:27.373Z,142.40
2023-05-04T01:51:53.820Z,150.07
2023-05-04T01:54:20.267Z,147.97
2023-05-04T01:56:46.789Z,148.77
2023-05-04T01:59:13.273Z,146.63
2023-05-04T02:01:39.804Z,144.03
2023-05-04T02:04:06.338Z,146.63
2023-05-04T02:06:33.014Z,146.90
2023-05-04T02:08:59.630Z,147.23
2023-05-04T02:11:26.256Z,147.00
2023-05-04T02:13:53.834Z,146.73
2023-05-04T02:16:20.394Z,149.77
2023-05-04T02:18:46.953Z,148.90
2023-05-04T02:21:13.757Z,148.37
2023-05-04T02:23:40.206Z,144.40
2023-05-04T02:26:06.730Z,143.07
2023-05-04T02:28:33.194Z,145.90
2023-05-04T02:30:59.704Z,147.80
2023-05-04T02:33:26.208Z,141.23
2023-05-04T02:35:52.647Z,142.60
2023-05-04T02:38:19.148Z,143.40
2023-05-04T02:40:45.582Z,144.70
2023-05-04T02:43:12.100Z,145.17
2023-05-04T02:45:38.653Z,145.87
2023-05-04T02:48:05.492Z,140.93
2023-05-04T02:50:32.015Z,136.23
2023-05-04T02:52:58.562Z,143.50
2023-05-04T02:55:25.031Z,143.47
2023-05-04T02:57:51.483Z,137.80
2023-05-04T03:00:18.194Z,136.70
2023-05-04T03:02:44.676Z,142.03
2023-05-04T03:05:11.356Z,136.97
2023-05-04T03:07:37.826Z,140.70
2023-05-04T03:10:04.805Z,141.70
2023-05-04T03:12:31.608Z,141.93
2023-05-04T03:14:58.112Z,143.40
2023-05-04T03:17:24.584Z,143.20
2023-05-04T03:19:51.048Z,140.10
2023-05-04T03:22:17.560Z,140.83
2023-05-04T03:24:44.119Z,143.17
2023-05-04T03:27:10.657Z,143.83
2023-05-04T03:29:37.105Z,145.60
2023-05-04T03:32:03.721Z,145.23
2023-05-04T03:34:30.236Z,145.70
2023-05-04T03:36:58.243Z,144.57
2023-05-04T03:39:24.727Z,147.53
2023-05-04T03:41:52.601Z,145.57
2023-05-04T03:44:19.145Z,143.77
2023-05-04T03:46:45.585Z,147.93
2023-05-04T03:49:12.070Z,141.60
2023-05-04T03:51:38.503Z,144.30
2023-05-04T03:54:05.061Z,140.70
2023-05-04T03:56:31.545Z,150.60
2023-05-04T03:58:58.015Z,147.97
2023-05-04T04:01:25.322Z,152.03
2023-05-04T04:03:51.886Z,152.00
2023-05-04T04:06:18.405Z,148.90
2023-05-04T04:08:44.865Z,148.63
2023-05-04T04:11:11.315Z,154.60
2023-05-04T04:13:37.775Z,160.87
2023-05-04T04:16:04.716Z,160.67
2023-05-04T04:18:31.494Z,174.57
2023-05-04T04:20:58.018Z,175.77
2023-05-04T04:23:25.401Z,168.00
2023-05-04T04:25:53.795Z,173.07
2023-05-04T04:28:20.308Z,169.67
2023-05-04T04:30:46.765Z,175.67
2023-05-04T04:33:13.237Z,172.93
2023-05-04T04:35:39.843Z,170.43
2023-05-04T04:38:07.019Z,171.27
2023-05-04T04:40:33.452Z,174.97
2023-05-04T04:42:59.985Z,175.37
2023-05-04T04:45:26.441Z,175.97
2023-05-04T04:47:53.036Z,178.70
2023-05-04T04:50:19.524Z,176.23
2023-05-04T04:52:46.389Z,179.13
2023-05-04T04:55:13.375Z,179.60
2023-05-04T04:57:39.866Z,173.90
2023-05-04T05:00:10.216Z,177.87
2023-05-04T05:02:37.033Z,179.90
2023-05-04T05:05:03.969Z,177.00
2023-05-04T05:07:30.714Z,182.33
2023-05-04T05:09:57.227Z,177.83
2023-05-04T05:12:23.729Z,179.90
2023-05-04T05:14:50.908Z,176.63
2023-05-04T05:17:18.103Z,188.47
2023-05-04T05:19:44.641Z,183.50
2023-05-04T05:22:11.088Z,185.33
2023-05-04T05:24:37.578Z,185.17
2023-05-04T05:27:04.038Z,189.23
2023-05-04T05:29:30.976Z,195.97
2023-05-04T05:31:57.414Z,181.87
2023-05-04T05:34:23.879Z,188.77
2023-05-04T05:36:50.338Z,188.53
2023-05-04T05:39:16.912Z,191.00
2023-05-04T05:41:43.383Z,198.77
2023-05-04T05:44:11.720Z,197.73
2023-05-04T05:46:39.564Z,212.27
2023-05-04T05:49:07.416Z,202.37
2023-05-04T05:51:34.028Z,202.20
2023-05-04T05:54:00.782Z,204.67
2023-05-04T05:56:27.228Z,208.53
2023-05-04T05:58:53.773Z,208.77
2023-05-04T06:01:20.245Z,204.30
2023-05-04T06:03:47.022Z,207.67
2023-05-04T06:06:13.807Z,200.40
2023-05-04T06:08:41.532Z,206.73
2023-05-04T06:11:07.962Z,203.40
2023-05-04T06:13:34.476Z,212.27
2023-05-04T06:16:01.033Z,203.93
2023-05-04T06:18:27.551Z,200.30
2023-05-04T06:21:00.959Z,207.63
2023-05-04T06:23:28.800Z,197.50
2023-05-04T06:25:55.312Z,194.70
2023-05-04T06:28:21.902Z,199.43
2023-05-04T06:30:48.635Z,196.03
2023-05-04T06:33:15.279Z,192.73
2023-05-04T06:35:42.108Z,179.33
2023-05-04T06:38:08.604Z,173.50
2023-05-04T06:40:35.376Z,172.33
2023-05-04T06:43:02.061Z,168.27
2023-05-04T06:45:28.759Z,167.97
2023-05-04T06:47:55.243Z,166.37
2023-05-04T06:50:24.008Z,167.37
2023-05-04T06:52:50.793Z,160.30
2023-05-04T06:55:17.389Z,158.60
2023-05-04T06:57:43.855Z,150.70
2023-05-04T07:00:10.820Z,147.60
2023-05-04T07:02:37.251Z,141.27
2023-05-04T07:05:03.978Z,133.43
2023-05-04T07:07:30.450Z,132.80
2023-05-04T07:09:56.922Z,128.97
2023-05-04T07:12:23.377Z,127.80
2023-05-04T07:14:50.060Z,128.43
2023-05-04T07:17:16.604Z,123.73
2023-05-04T07:19:43.078Z,126.60
2023-05-04T07:22:09.771Z,123.33
2023-05-04T07:24:36.231Z,125.00
2023-05-04T07:27:03.212Z,118.77
2023-05-04T07:29:29.824Z,114.37
2023-05-04T07:31:56.274Z,117.67
2023-05-04T07:34:27.644Z,107.57
2023-05-04T07:37:00.722Z,114.73
2023-05-04T07:39:27.178Z,109.87
2023-05-04T07:41:54.411Z,106.00
2023-05-04T07:44:20.960Z,107.77
2023-05-04T07:46:47.415Z,106.20
2023-05-04T07:49:13.949Z,101.73
2023-05-04T07:51:40.420Z,100.23
2023-05-04T07:54:06.986Z,101.57
2023-05-04T07:56:33.470Z,93.20
2023-05-04T07:58:59.972Z,87.27
2023-05-04T08:01:26.435Z,89.40
2023-05-04T08:03:52.907Z,84.67
2023-05-04T08:06:19.333Z,79.60
2023-05-04T08:08:46.592Z,79.33
2023-05-04T08:11:20.673Z,76.47
2023-05-04T08:13:50.719Z,77.10
2023-05-04T08:16:17.589Z,75.03
2023-05-04T08:18:44.493Z,73.63
2023-05-04T08:21:10.955Z,73.03
2023-05-04T08:23:37.520Z,74.83
2023-05-04T08:26:04.813Z,66.57
2023-05-04T08:28:35.306Z,69.33
2023-05-04T08:31:03.272Z,75.03
2023-05-04T08:33:30.492Z,72.40
2023-05-04T08:35:59.550Z,70.33
2023-05-04T08:38:26.688Z,65.37
2023-05-04T08:40:54.929Z,63.23
2023-05-04T08:43:22.199Z,64.17
2023-05-04T08:45:51.726Z,65.57
2023-05-04T08:48:18.998Z,64.03
2023-05-04T08:50:46.184Z,62.30
2023-05-04T08:53:13.966Z,59.57
2023-05-04T08:55:42.476Z,57.40
2023-05-04T08:58:10.964Z,61.57
2023-05-04T09:00:38.826Z,59.60
2023-05-04T09:03:10.520Z,60.57
2023-05-04T09:05:38.380Z,60.43
2023-05-04T09:08:05.649Z,61.43
2023-05-04T09:10:33.370Z,64.17
2023-05-04T09:13:00.007Z,60.93
2023-05-04T09:15:26.619Z,61.13
2023-05-04T09:18:03.914Z,58.37
2023-05-04T09:20:31.519Z,56.97
2023-05-04T09:23:09.154Z,52.40
2023-05-04T09:25:55.273Z,57.47
2023-05-04T09:28:37.461Z,55.40
2023-05-04T09:31:04.498Z,55.23
2023-05-04T09:33:32.038Z,56.47
2023-05-04T09:36:15.926Z,54.57
2023-05-04T09:38:42.530Z,54.77
2023-05-04T09:41:09.409Z,58.47
2023-05-04T09:43:43.941Z,54.03
2023-05-04T09:46:20.126Z,54.53
2023-05-04T09:48:57.168Z,54.47
2023-05-04T09:51:25.943Z,55.10
2023-05-04T09:53:52.804Z,55.53
2023-05-04T09:56:38.744Z,52.07
2023-05-04T09:59:05.918Z,50.47
2023-05-04T10:01:32.556Z,52.17
2023-05-04T10:03:59.208Z,50.07
2023-05-04T10:06:28.906Z,53.23
2023-05-04T10:08:56.507Z,50.83
2023-05-04T10:11:25.797Z,50.70
2023-05-04T10:13:55.890Z,49.00
2023-05-04T10:16:38.827Z,46.07
2023-05-04T10:19:22.674Z,50.20
2023-05-04T10:22:10.882Z,46.20
2023-05-04T10:24:57.179Z,44.90
2023-05-04T10:27:57.330Z,45.57
2023-05-04T10:30:23.955Z,48.63
2023-05-04T10:32:57.726Z,47.03
2023-05-04T10:35:24.666Z,44.97
2023-05-04T10:37:54.460Z,43.13
2023-05-04T10:40:36.776Z,47.70
2023-05-04T10:43:04.052Z,47.83
2023-05-04T10:45:37.267Z,53.97
2023-05-04T10:48:05.197Z,54.07
2023-05-04T10:50:46.082Z,52.93
2023-05-04T10:53:14.679Z,58.47
2023-05-04T10:55:48.718Z,56.80
2023-05-04T10:58:19.158Z,54.37
2023-05-04T11:00:48.101Z,55.20
2023-05-04T11:03:15.530Z,50.27
2023-05-04T11:05:43.395Z,51.67
2023-05-04T11:08:19.879Z,50.80
2023-05-04T11:10:48.225Z,52.67
2023-05-04T11:13:16.261Z,56.93
2023-05-04T11:15:47.203Z,55.30
2023-05-04T11:18:13.823Z,58.87
2023-05-04T11:20:40.830Z,67.13
2023-05-04T11:23:10.305Z,66.23
2023-05-04T11:25:37.680Z,56.00
2023-05-04T11:28:04.777Z,58.27
2023-05-04T11:30:33.499Z,63.60
2023-05-04T11:33:00.947Z,59.80
2023-05-04T11:35:27.684Z,56.63
2023-05-04T11:37:55.472Z,63.53
2023-05-04T11:40:25.175Z,61.30
2023-05-04T11:42:55.403Z,63.47
2023-05-04T11:45:24.213Z,61.77
2023-05-04T11:47:52.096Z,63.37
2023-05-04T11:50:20.765Z,67.23
2023-05-04T11:52:47.872Z,62.40
2023-05-04T11:55:30.819Z,63.17
2023-05-04T11:58:07.237Z,60.83
2023-05-04T12:00:41.699Z,56.33
2023-05-04T12:03:10.128Z,55.23
2023-05-04T12:05:37.571Z,53.73
2023-05-04T12:08:04.556Z,74.17
2023-05-04T12:10:33.495Z,54.60
2023-05-04T12:13:00.124Z,53.17
2023-05-04T12:15:36.475Z,49.27
2023-05-04T12:18:03.571Z,52.73
2023-05-04T12:20:30.902Z,51.40
2023-05-04T12:22:57.902Z,56.03
2023-05-04T12:25:25.027Z,57.53
2023-05-04T12:27:51.764Z,52.37
2023-05-04T12:30:18.476Z,47.77
2023-05-04T12:32:45.213Z,51.10
2023-05-04T12:35:11.942Z,49.13
2023-05-04T12:37:38.404Z,47.33
2023-05-04T12:40:21.005Z,47.67
2023-05-04T12:42:54.847Z,46.43
2023-05-04T12:45:22.699Z,46.17
2023-05-04T12:47:51.222Z,48.53
2023-05-04T12:50:18.052Z,46.70
2023-05-04T12:52:44.686Z,46.23
2023-05-04T12:55:11.289Z,45.87
2023-05-04T12:57:37.891Z,45.83
2023-05-04T13:00:07.228Z,50.23
2023-05-04T13:02:34.255Z,51.40
2023-05-04T13:05:00.904Z,49.60
2023-05-04T13:07:27.699Z,47.67
2023-05-04T13:09:54.167Z,47.43
2023-05-04T13:12:20.646Z,46.53
2023-05-04T13:14:47.631Z,46.03
2023-05-04T13:17:15.112Z,46.97
2023-05-04T13:19:41.700Z,42.37
2023-05-04T13:22:08.288Z,42.23
2023-05-04T13:24:34.964Z,45.23
2023-05-04T13:27:01.570Z,47.13
2023-05-04T13:29:28.057Z,44.63
2023-05-04T13:31:54.646Z,45.43
2023-05-04T13:34:21.220Z,44.13
2023-05-04T13:36:48.138Z,45.40
2023-05-04T13:39:14.910Z,48.50
2023-05-04T13:41:41.471Z,48.40
2023-05-04T13:44:08.211Z,64.90
2023-05-04T13:46:36.202Z,50.50
2023-05-04T13:49:03.111Z,53.67
2023-05-04T13:51:29.839Z,53.97
2023-05-04T13:53:56.281Z,54.77
2023-05-04T13:56:23.368Z,53.17
2023-05-04T13:58:49.994Z,59.47
2023-05-04T14:01:16.511Z,58.00
2023-05-04T14:03:43.093Z,58.73
2023-05-04T14:06:09.624Z,54.73
2023-05-04T14:08:36.176Z,60.43
2023-05-04T14:11:03.000Z,56.73
2023-05-04T14:13:29.470Z,60.17
2023-05-04T14:15:55.910Z,61.13
2023-05-04T14:18:22.408Z,65.50
2023-05-04T14:20:49.054Z,64.37
2023-05-04T14:23:16.172Z,62.93
2023-05-04T14:25:44.022Z,60.93
2023-05-04T14:28:10.853Z,67.40
2023-05-04T14:30:37.319Z,63.87
2023-05-04T14:33:04.028Z,65.43
2023-05-04T14:35:31.724Z,61.37
2023-05-04T14:37:58.180Z,64.47
2023-05-04T14:40:24.608Z,58.50
2023-05-04T14:42:51.328Z,62.07
2023-05-04T14:45:17.956Z,64.53
2023-05-04T14:47:44.548Z,60.47
2023-05-04T14:50:12.166Z,61.47
2023-05-04T14:52:38.885Z,62.17
2023-05-04T14:55:09.036Z,68.10
2023-05-04T14:57:35.617Z,66.27
2023-05-04T15:00:07.846Z,64.80
2023-05-04T15:02:35.888Z,69.50
2023-05-04T15:05:03.017Z,72.77
2023-05-04T15:07:29.516Z,70.47
2023-05-04T15:09:56.126Z,68.33
2023-05-04T15:12:22.876Z,72.13
2023-05-04T15:14:49.367Z,68.43
2023-05-04T15:17:17.225Z,70.73
2023-05-04T15:19:45.328Z,80.80
2023-05-04T15:22:11.797Z,68.70
2023-05-04T15:24:41.804Z,81.07
2023-05-04T15:27:08.275Z,72.33
2023-05-04T15:29:34.738Z,71.03
2023-05-04T15:32:01.295Z,71.40
2023-05-04T15:34:27.812Z,68.03
2023-05-04T15:36:55.050Z,68.90
2023-05-04T15:39:21.899Z,72.33
2023-05-04T15:41:48.359Z,73.33
2023-05-04T15:44:15.314Z,70.77
2023-05-04T15:46:43.262Z,72.77
2023-05-04T15:49:09.864Z,70.17
2023-05-04T15:51:36.547Z,73.43
2023-05-04T15:54:03.842Z,68.93
2023-05-04T15:56:30.273Z,70.70
2023-05-04T15:58:56.974Z,75.37
2023-05-04T16:01:23.476Z,81.13
2023-05-04T16:03:50.173Z,76.27
2023-05-04T16:06:17.959Z,75.87
2023-05-04T16:08:44.689Z,76.63
2023-05-04T16:11:11.334Z,81.83
2023-05-04T16:13:37.859Z,82.23
2023-05-04T16:16:04.768Z,83.37
2023-05-04T16:18:31.684Z,90.87
2023-05-04T16:20:58.304Z,84.97
2023-05-04T16:23:24.845Z,85.60
2023-05-04T16:25:51.875Z,85.93
2023-05-04T16:28:18.434Z,85.50
2023-05-04T16:30:45.757Z,84.43
2023-05-04T16:33:12.857Z,86.40
2023-05-04T16:35:39.377Z,86.63
2023-05-04T16:38:06.278Z,84.53
2023-05-04T16:40:33.051Z,86.07
2023-05-04T16:42:59.796Z,84.80
2023-05-04T16:45:31.231Z,94.43
2023-05-04T16:47:58.911Z,89.93
2023-05-04T16:50:25.567Z,88.73
2023-05-04T16:52:52.023Z,87.73
2023-05-04T16:55:19.124Z,89.40
2023-05-04T16:57:46.084Z,87.23
2023-05-04T17:00:13.644Z,92.10
2023-05-04T17:02:40.304Z,89.70
2023-05-04T17:05:10.109Z,95.10
2023-05-04T17:07:39.588Z,98.57
2023-05-04T17:10:07.819Z,100.97
2023-05-04T17:12:34.865Z,103.10
2023-05-04T17:15:01.571Z,99.80
2023-05-04T17:17:28.469Z,105.20
2023-05-04T17:19:55.208Z,105.53
2023-05-04T17:22:21.994Z,104.57
2023-05-04T17:24:49.450Z,111.93
2023-05-04T17:27:18.606Z,103.73
2023-05-04T17:29:57.534Z,107.73
2023-05-04T17:35:25.805Z,112.70
2023-05-04T17:38:03.752Z,108.63
2023-05-04T17:40:30.687Z,118.63
2023-05-04T17:43:00.349Z,112.60
2023-05-04T17:45:27.022Z,114.63
2023-05-04T17:47:53.839Z,112.87
2023-05-04T17:50:23.832Z,114.20
2023-05-04T17:52:56.988Z,115.40
2023-05-04T17:55:27.673Z,114.30
2023-05-04T17:57:54.577Z,121.40
2023-05-04T18:00:21.523Z,111.80
2023-05-04T18:02:48.142Z,115.97
2023-05-04T18:05:14.988Z,117.87
2023-05-04T18:07:41.626Z,118.23
2023-05-04T18:10:08.534Z,119.27
2023-05-04T18:12:38.039Z,122.23
2023-05-04T18:15:08.281Z,121.13
2023-05-04T18:17:37.688Z,120.97
2023-05-04T18:20:06.861Z,121.17
2023-05-04T18:22:34.158Z,121.67
2023-05-04T18:25:01.421Z,115.57
2023-05-04T18:27:34.779Z,120.27
2023-05-04T18:30:02.134Z,128.73
2023-05-04T18:32:28.685Z,125.43
2023-05-04T18:34:58.027Z,127.13
2023-05-04T18:37:25.516Z,130.30
2023-05-04T18:39:52.023Z,127.07
2023-05-04T18:42:18.584Z,129.27
2023-05-04T18:44:45.159Z,122.30
2023-05-04T18:47:11.682Z,123.97
2023-05-04T18:49:38.265Z,126.50
2023-05-04T18:52:05.060Z,131.63
2023-05-04T18:54:34.605Z,127.27
2023-05-04T18:57:01.212Z,132.37
2023-05-04T18:59:27.770Z,128.50
2023-05-04T19:01:54.392Z,125.33
2023-05-04T19:04:20.917Z,130.90
2023-05-04T19:06:47.762Z,132.93
2023-05-04T19:09:15.092Z,129.53
2023-05-04T19:11:41.733Z,130.83
2023-05-04T19:14:08.253Z,128.90
2023-05-04T19:16:35.090Z,131.60
2023-05-04T19:19:01.608Z,129.97
2023-05-04T19:21:28.578Z,133.03
2023-05-04T19:23:55.129Z,136.83
2023-05-04T19:26:22.036Z,136.27
2023-05-04T19:28:48.631Z,132.13
2023-05-04T19:31:15.588Z,132.60
2023-05-04T19:33:48.457Z,132.87
2023-05-04T19:36:16.948Z,132.00
2023-05-04T19:38:43.786Z,137.63
2023-05-04T19:41:10.563Z,143.40
2023-05-04T19:43:38.869Z,138.90
2023-05-04T19:46:05.749Z,131.67
2023-05-04T19:48:33.038Z,130.00
2023-05-04T19:50:59.558Z,138.60
2023-05-04T19:53:26.164Z,143.17
2023-05-04T19:55:52.921Z,146.77
2023-05-04T19:58:19.436Z,143.13
2023-05-04T20:00:45.973Z,139.47
2023-05-04T20:03:12.488Z,132.60
2023-05-04T20:05:39.045Z,140.47
2023-05-04T20:08:05.588Z,143.77
2023-05-04T20:10:32.623Z,144.30
2023-05-04T20:12:59.179Z,135.57
2023-05-04T20:15:26.078Z,139.23
2023-05-04T20:17:53.045Z,144.87
2023-05-04T20:20:21.510Z,142.37
2023-05-04T20:22:51.984Z,141.20
2023-05-04T20:25:20.117Z,136.43
2023-05-04T20:27:48.697Z,138.27
2023-05-04T20:30:15.702Z,133.73
2023-05-04T20:32:42.732Z,135.60
2023-05-04T20:35:09.554Z,132.07
2023-05-04T20:37:36.386Z,139.67
2023-05-04T20:40:02.965Z,142.90
2023-05-04T20:42:29.410Z,141.97
2023-05-04T20:44:56.084Z,135.90
2023-05-04T20:47:22.655Z,138.43
2023-05-04T20:49:49.355Z,134.93
2023-05-04T20:52:16.074Z,136.70
2023-05-04T20:54:44.907Z,138.10
2023-05-04T20:57:11.501Z,142.87
2023-05-04T20:59:38.187Z,135.17
2023-05-04T21:02:05.006Z,141.87
2023-05-04T21:04:31.555Z,140.40
2023-05-04T21:06:58.247Z,137.40
2023-05-04T21:09:26.378Z,143.00
2023-05-04T21:11:52.936Z,137.83
2023-05-04T21:14:19.985Z,141.90
2023-05-04T21:16:46.518Z,136.03
2023-05-04T21:19:13.028Z,139.20
2023-05-04T21:21:41.376Z,142.47
2023-05-04T21:24:14.477Z,138.17
2023-05-04T21:26:41.700Z,140.73
2023-05-04T21:29:13.120Z,135.90
2023-05-04T21:31:40.667Z,139.23
2023-05-04T21:34:07.799Z,141.07
2023-05-04T21:36:34.726Z,143.87
2023-05-04T21:39:01.405Z,141.13
2023-05-04T21:41:27.983Z,138.63
2023-05-04T21:43:54.808Z,144.90
2023-05-04T21:46:21.438Z,136.30
2023-05-04T21:48:48.409Z,135.37
2023-05-04T21:51:15.000Z,140.67
2023-05-04T21:53:44.777Z,141.63
2023-05-04T21:56:11.837Z,140.63
2023-05-04T21:58:40.701Z,144.77
2023-05-04T22:01:08.260Z,137.47
2023-05-04T22:03:35.618Z,145.13
2023-05-04T22:06:02.202Z,139.87
2023-05-04T22:08:29.117Z,133.67
2023-05-04T22:10:57.177Z,139.00
2023-05-04T22:13:23.743Z,139.13
2023-05-04T22:15:50.944Z,140.50
2023-05-04T22:18:18.198Z,134.43
2023-05-04T22:20:45.297Z,136.33
2023-05-04T22:23:12.086Z,145.80
2023-05-04T22:25:39.091Z,136.50
2023-05-04T22:28:05.896Z,139.33
2023-05-04T22:30:32.589Z,143.13
2023-05-04T22:32:59.177Z,139.90
2023-05-04T22:35:25.698Z,143.90
2023-05-04T22:37:52.247Z,134.40
2023-05-04T22:40:18.959Z,134.30
2023-05-04T22:42:45.690Z,136.40
2023-05-04T22:45:14.122Z,134.17
2023-05-04T22:47:44.311Z,133.50
2023-05-04T22:50:11.151Z,128.40
2023-05-04T22:52:38.241Z,133.83
2023-05-04T22:55:05.828Z,132.77
2023-05-04T22:57:33.405Z,136.37
2023-05-04T22:59:59.866Z,134.10
2023-05-04T23:02:36.299Z,138.97
2023-05-04T23:05:04.831Z,143.00
2023-05-04T23:07:31.632Z,138.93
2023-05-04T23:09:58.245Z,131.03
2023-05-04T23:12:25.568Z,128.10
2023-05-04T23:14:55.025Z,138.37
2023-05-04T23:17:22.056Z,138.73
2023-05-04T23:19:48.586Z,140.77
2023-05-04T23:22:15.126Z,141.37
2023-05-04T23:24:42.301Z,135.53
2023-05-04T23:27:08.835Z,138.70
2023-05-04T23:29:35.575Z,133.80
2023-05-04T23:32:02.088Z,135.70
2023-05-04T23:34:28.574Z,138.37
2023-05-04T23:36:55.201Z,130.33
2023-05-04T23:39:22.225Z,140.20
2023-05-04T23:41:49.169Z,133.40
2023-05-04T23:44:16.557Z,138.73
2023-05-04T23:46:43.770Z,140.37
2023-05-04T23:49:10.323Z,142.27
2023-05-04T23:51:36.840Z,139.17
2023-05-04T23:54:03.435Z,138.63
2023-05-04T23:56:31.291Z,142.70
2023-05-04T23:58:57.787Z,142.83
